createdAt,value
2022-09-03T00:01:59.659Z,1.70
2022-09-03T00:04:41.400Z,2.20
2022-09-03T00:07:18.617Z,2.00
2022-09-03T00:12:24.908Z,1.73
2022-09-03T00:15:22.036Z,2.00
2022-09-03T00:18:08.033Z,1.75
2022-09-03T00:20:49.006Z,1.95
2022-09-03T00:23:22.036Z,2.25
2022-09-03T00:26:13.685Z,2.05
2022-09-03T00:28:44.105Z,2.03
2022-09-03T00:31:20.010Z,1.90
2022-09-03T00:33:49.119Z,2.03
2022-09-03T00:36:32.212Z,2.00
2022-09-03T00:38:59.965Z,2.05
2022-09-03T00:41:37.563Z,2.00
2022-09-03T00:44:18.226Z,2.03
2022-09-03T00:46:57.251Z,1.75
2022-09-03T00:49:28.096Z,1.90
2022-09-03T00:52:23.333Z,1.80
2022-09-03T00:54:59.065Z,2.10
2022-09-03T00:57:44.313Z,2.10
2022-09-03T01:00:15.255Z,1.98
2022-09-03T01:03:09.990Z,2.00
2022-09-03T01:05:58.557Z,2.10
2022-09-03T01:08:49.143Z,2.15
2022-09-03T01:11:20.092Z,2.00
2022-09-03T01:16:30.211Z,3.22
2022-09-03T01:19:19.074Z,2.53
2022-09-03T01:22:05.898Z,2.03
2022-09-03T01:25:08.131Z,2.00
2022-09-03T01:28:10.918Z,2.10
2022-09-03T01:30:42.706Z,2.25
2022-09-03T01:33:27.057Z,2.10
2022-09-03T01:35:58.060Z,2.00
2022-09-03T01:38:56.966Z,2.22
2022-09-03T01:41:51.652Z,2.22
2022-09-03T01:44:53.064Z,3.15
2022-09-03T01:47:35.258Z,2.42
2022-09-03T01:50:18.060Z,2.13
2022-09-03T01:52:51.073Z,2.00
2022-09-03T01:55:48.627Z,2.30
2022-09-03T01:58:27.021Z,1.95
2022-09-03T02:01:00.878Z,2.10
2022-09-03T02:03:40.866Z,2.17
2022-09-03T02:06:10.622Z,2.10
2022-09-03T02:08:38.182Z,2.15
2022-09-03T02:11:09.087Z,2.17
2022-09-03T02:13:41.368Z,2.25
2022-09-03T02:16:22.496Z,2.03
2022-09-03T02:18:55.034Z,2.20
2022-09-03T02:21:24.673Z,2.47
2022-09-03T02:23:52.295Z,2.13
2022-09-03T02:26:23.445Z,2.30
2022-09-03T02:31:35.716Z,2.20
2022-09-03T02:34:02.866Z,2.20
2022-09-03T02:36:34.216Z,2.33
2022-09-03T02:39:01.240Z,2.03
2022-09-03T02:41:28.799Z,2.40
2022-09-03T02:44:03.884Z,2.28
2022-09-03T02:46:38.759Z,2.42
2022-09-03T02:49:06.856Z,2.30
2022-09-03T02:51:39.400Z,2.22
2022-09-03T02:54:11.271Z,2.60
2022-09-03T02:56:38.563Z,2.70
2022-09-03T02:59:07.244Z,2.25
2022-09-03T03:01:35.010Z,2.13
2022-09-03T03:04:01.736Z,2.22
2022-09-03T03:06:28.762Z,2.40
2022-09-03T03:08:57.060Z,2.25
2022-09-03T03:11:26.753Z,2.15
2022-09-03T03:13:53.841Z,2.40
2022-09-03T03:16:20.638Z,2.42
2022-09-03T03:18:52.304Z,3.63
2022-09-03T03:21:20.105Z,2.42
2022-09-03T03:23:47.662Z,10.02
2022-09-03T03:26:19.175Z,2.50
2022-09-03T03:28:51.130Z,2.78
2022-09-03T03:31:21.769Z,2.10
2022-09-03T03:36:28.788Z,2.30
2022-09-03T03:38:58.430Z,2.70
2022-09-03T03:41:27.244Z,2.53
2022-09-03T03:43:55.515Z,2.35
2022-09-03T03:46:23.786Z,2.45
2022-09-03T03:48:51.998Z,2.25
2022-09-03T03:51:19.092Z,2.42
2022-09-03T03:53:46.076Z,2.92
2022-09-03T03:56:15.335Z,2.70
2022-09-03T03:58:44.262Z,2.55
2022-09-03T04:01:16.690Z,2.58
2022-09-03T04:03:43.993Z,2.50
2022-09-03T04:06:12.942Z,2.65
2022-09-03T04:08:42.003Z,2.60
2022-09-03T04:11:13.805Z,2.67
2022-09-03T04:13:43.247Z,2.50
2022-09-03T04:16:16.045Z,2.40
2022-09-03T04:18:42.866Z,2.40
2022-09-03T04:21:13.497Z,2.58
2022-09-03T04:26:10.041Z,3.20
2022-09-03T04:28:36.779Z,2.50
2022-09-03T04:31:05.355Z,2.65
2022-09-03T04:33:33.407Z,2.50
2022-09-03T04:36:10.728Z,2.60
2022-09-03T04:41:09.799Z,2.45
2022-09-03T04:43:36.593Z,2.47
2022-09-03T04:46:06.677Z,2.50
2022-09-03T04:48:34.885Z,2.90
2022-09-03T04:51:16.863Z,2.40
2022-09-03T04:53:46.123Z,2.78
2022-09-03T04:56:20.269Z,2.47
2022-09-03T04:58:51.015Z,2.60
2022-09-03T05:03:48.169Z,2.80
2022-09-03T05:06:18.821Z,2.40
2022-09-03T05:11:27.277Z,2.60
2022-09-03T05:13:56.497Z,2.42
2022-09-03T05:16:28.635Z,2.80
2022-09-03T05:18:58.443Z,2.30
2022-09-03T05:21:26.202Z,2.30
2022-09-03T05:23:53.754Z,2.53
2022-09-03T05:26:26.694Z,2.53
2022-09-03T05:29:01.427Z,2.30
2022-09-03T05:31:31.793Z,2.38
2022-09-03T05:36:31.003Z,2.78
2022-09-03T05:39:00.391Z,2.63
2022-09-03T05:41:29.124Z,2.38
2022-09-03T05:43:59.859Z,2.50
2022-09-03T05:49:03.103Z,2.55
2022-09-03T05:51:35.580Z,2.35
2022-09-03T05:54:03.492Z,2.60
2022-09-03T05:56:35.016Z,2.30
2022-09-03T05:59:07.338Z,2.58
2022-09-03T06:04:57.988Z,2.40
2022-09-03T06:07:25.712Z,2.20
2022-09-03T06:09:52.491Z,2.42
2022-09-03T06:12:20.459Z,2.40
2022-09-03T06:14:47.587Z,2.40
2022-09-03T06:17:16.778Z,2.65
2022-09-03T06:19:43.897Z,2.40
2022-09-03T06:22:10.622Z,2.22
2022-09-03T06:24:37.473Z,2.35
2022-09-03T06:27:05.574Z,2.33
2022-09-03T06:29:33.343Z,2.22
2022-09-03T06:32:05.947Z,2.25
2022-09-03T06:34:32.966Z,2.35
2022-09-03T06:37:00.121Z,2.30
2022-09-03T06:39:29.127Z,2.10
2022-09-03T06:41:56.341Z,2.47
2022-09-03T06:44:23.631Z,2.08
2022-09-03T06:46:55.290Z,2.50
2022-09-03T06:49:22.168Z,2.28
2022-09-03T06:51:49.084Z,2.30
2022-09-03T06:54:16.395Z,1.92
2022-09-03T06:56:43.121Z,2.40
2022-09-03T06:59:17.776Z,2.13
2022-09-03T07:01:46.168Z,2.45
2022-09-03T07:04:20.076Z,2.08
2022-09-03T07:06:51.291Z,2.15
2022-09-03T07:09:19.255Z,1.90
2022-09-03T07:11:48.576Z,2.00
2022-09-03T07:14:18.513Z,2.00
2022-09-03T07:16:46.425Z,2.08
2022-09-03T07:19:13.617Z,2.05
2022-09-03T07:21:48.310Z,2.30
2022-09-03T07:24:15.760Z,1.80
2022-09-03T07:26:49.346Z,2.80
2022-09-03T07:29:22.949Z,1.98
2022-09-03T07:31:52.391Z,1.70
2022-09-03T07:34:20.372Z,2.20
2022-09-03T07:36:51.298Z,1.73
2022-09-03T07:39:18.789Z,2.17
2022-09-03T07:41:46.427Z,2.13
2022-09-03T07:44:15.379Z,1.95
2022-09-03T07:46:43.687Z,1.80
2022-09-03T07:49:10.951Z,2.13
2022-09-03T07:51:39.055Z,2.35
2022-09-03T07:54:11.114Z,2.17
2022-09-03T07:56:40.253Z,1.73
2022-09-03T07:59:08.453Z,1.80
2022-09-03T08:04:21.547Z,1.92
2022-09-03T08:09:34.896Z,2.00
2022-09-03T08:12:01.943Z,2.00
2022-09-03T08:14:34.154Z,1.90
2022-09-03T08:17:01.134Z,2.13
2022-09-03T08:19:34.451Z,1.80
2022-09-03T08:22:10.902Z,1.90
2022-09-03T08:41:53.906Z,2.25
2022-09-03T08:45:05.903Z,1.90
2022-09-03T08:48:31.553Z,2.20
2022-09-03T08:51:15.185Z,2.33
2022-09-03T08:53:58.048Z,2.50
2022-09-03T08:56:49.941Z,2.20
2022-09-03T08:59:32.904Z,2.28
2022-09-03T09:02:20.297Z,2.67
2022-09-03T09:08:18.257Z,2.13
2022-09-03T09:11:10.530Z,2.63
2022-09-03T09:14:22.995Z,2.28
2022-09-03T09:17:03.016Z,2.00
2022-09-03T09:19:53.552Z,2.50
2022-09-03T09:22:41.559Z,2.05
2022-09-03T09:25:18.794Z,2.15
2022-09-03T09:27:53.916Z,2.08
2022-09-03T09:30:20.807Z,2.88
2022-09-03T09:32:47.738Z,2.00
2022-09-03T09:35:17.560Z,2.15
2022-09-03T09:37:56.694Z,2.08
2022-09-03T09:40:44.794Z,2.08
2022-09-03T09:43:20.576Z,2.28
2022-09-03T09:45:52.787Z,2.00
2022-09-03T09:48:37.676Z,1.92
2022-09-03T09:51:15.006Z,2.60
2022-09-03T09:53:42.469Z,2.80
2022-09-03T09:56:11.620Z,2.08
2022-09-03T10:01:25.770Z,1.95
2022-09-03T10:04:00.730Z,1.95
2022-09-03T10:06:50.653Z,2.10
2022-09-03T10:09:19.853Z,1.95
2022-09-03T10:11:58.922Z,2.45
2022-09-03T10:17:43.102Z,2.60
2022-09-03T10:20:28.517Z,2.35
2022-09-03T10:23:24.555Z,2.10
2022-09-03T10:29:06.039Z,2.60
2022-09-03T10:38:47.014Z,2.30
2022-09-03T10:41:26.422Z,2.17
2022-09-03T10:44:09.169Z,2.10
2022-09-03T10:47:17.251Z,2.30
2022-09-03T10:54:01.879Z,2.28
2022-09-03T10:56:51.289Z,2.33
2022-09-03T11:00:00.514Z,2.55
2022-09-03T11:06:02.381Z,2.25
2022-09-03T11:08:38.099Z,2.90
2022-09-03T11:11:31.918Z,2.33
2022-09-03T11:14:14.688Z,2.40
2022-09-03T11:16:49.011Z,2.78
2022-09-03T11:19:34.317Z,2.58
2022-09-03T11:22:03.150Z,2.35
2022-09-03T11:27:43.238Z,2.22
2022-09-03T11:30:22.696Z,1.98
2022-09-03T11:33:09.937Z,2.58
2022-09-03T11:35:36.508Z,2.92
2022-09-03T11:38:21.496Z,2.20
2022-09-03T11:41:26.114Z,2.25
2022-09-03T11:43:59.114Z,2.55
2022-09-03T11:46:30.733Z,2.10
2022-09-03T11:49:13.714Z,2.13
2022-09-03T11:51:45.152Z,2.40
2022-09-03T11:54:21.093Z,3.08
2022-09-03T11:56:51.952Z,5.63
2022-09-03T11:59:26.559Z,4.47
2022-09-03T12:02:06.459Z,3.22
2022-09-03T12:04:47.473Z,3.47
2022-09-03T12:07:45.190Z,3.78
2022-09-03T12:10:43.503Z,4.10
2022-09-03T12:13:34.521Z,2.72
2022-09-03T12:16:31.980Z,3.00
2022-09-03T12:19:06.697Z,3.75
2022-09-03T12:21:41.011Z,3.40
2022-09-03T12:24:13.616Z,3.55
2022-09-03T12:26:42.640Z,3.75
2022-09-03T12:29:27.946Z,3.60
2022-09-03T12:32:11.375Z,3.38
2022-09-03T12:43:38.701Z,4.47
2022-09-03T12:46:18.548Z,4.97
2022-09-03T12:51:56.314Z,3.63
2022-09-03T12:54:25.298Z,5.07
2022-09-03T12:57:09.645Z,3.70
2022-09-03T12:59:44.342Z,3.90
2022-09-03T13:02:28.625Z,3.20
2022-09-03T13:04:57.500Z,3.83
2022-09-03T13:07:44.725Z,3.60
2022-09-03T13:10:53.793Z,3.53
2022-09-03T13:17:25.824Z,5.00
2022-09-03T13:23:59.800Z,4.20
2022-09-03T13:27:20.674Z,4.22
2022-09-03T13:30:07.201Z,4.00
2022-09-03T13:33:16.895Z,4.00
2022-09-03T13:36:22.935Z,4.00
2022-09-03T14:21:47.028Z,4.00
2022-09-03T15:10:12.011Z,3.72
2022-09-03T15:34:55.178Z,4.88
2022-09-03T15:44:16.967Z,4.78
2022-09-03T16:34:57.914Z,2.30
2022-09-03T16:38:06.133Z,2.58
2022-09-03T16:40:34.296Z,2.72
2022-09-03T16:43:39.642Z,2.20
2022-09-03T16:46:18.148Z,2.75
2022-09-03T17:07:40.326Z,3.38
2022-09-03T17:10:36.530Z,3.83
2022-09-03T17:17:02.430Z,5.07
2022-09-03T17:19:51.760Z,3.95
2022-09-03T17:22:56.425Z,3.40
2022-09-03T17:25:38.274Z,2.90
2022-09-03T17:28:25.413Z,2.58
2022-09-03T17:31:21.834Z,2.92
2022-09-03T17:34:33.764Z,3.17
2022-09-03T18:30:54.633Z,4.25
2022-09-03T18:33:44.533Z,3.40
2022-09-03T18:36:32.829Z,4.20
2022-09-03T18:39:35.815Z,3.35
2022-09-03T18:48:59.238Z,4.28
2022-09-03T18:58:52.231Z,3.85
2022-09-03T19:08:01.581Z,3.47
2022-09-03T19:11:05.289Z,3.42
2022-09-03T19:17:08.392Z,4.00
2022-09-03T19:20:31.680Z,4.20
2022-09-03T19:33:28.688Z,3.17
2022-09-03T19:36:48.373Z,3.88
2022-09-03T19:39:58.273Z,3.25
2022-09-03T19:49:43.944Z,3.28
2022-09-03T19:53:08.263Z,3.85
2022-09-03T19:56:07.412Z,4.43
2022-09-03T19:59:00.848Z,3.03
2022-09-03T20:05:19.481Z,3.63
2022-09-03T20:08:11.738Z,3.10
2022-09-03T20:10:41.628Z,3.75
2022-09-03T20:13:15.175Z,7.00
2022-09-03T20:16:10.010Z,5.05
2022-09-03T20:18:54.673Z,7.25
2022-09-03T20:21:35.658Z,3.45
2022-09-03T20:24:28.162Z,3.30
2022-09-03T20:30:39.620Z,3.53
2022-09-03T20:33:16.247Z,4.28
2022-09-03T20:36:15.502Z,5.40
2022-09-03T20:39:13.116Z,4.40
2022-09-03T20:41:52.865Z,4.50
2022-09-03T20:45:08.717Z,4.20
2022-09-03T20:48:09.965Z,3.88
2022-09-03T20:50:59.249Z,3.92
2022-09-03T20:53:56.611Z,3.10
2022-09-03T20:56:55.126Z,3.13
2022-09-03T20:59:42.627Z,3.40
2022-09-03T21:02:26.257Z,3.13
2022-09-03T21:05:02.141Z,3.40
2022-09-03T21:10:14.406Z,3.80
2022-09-03T21:13:03.417Z,3.78
2022-09-03T21:16:44.269Z,8.35
2022-09-03T21:19:48.225Z,3.97
2022-09-03T21:25:56.527Z,4.32
2022-09-03T21:31:40.548Z,6.75
2022-09-03T21:34:59.562Z,4.30
2022-09-03T21:37:33.104Z,4.28
2022-09-03T21:40:01.691Z,4.22
2022-09-03T21:43:07.590Z,4.43
2022-09-03T21:45:52.344Z,4.38
2022-09-03T21:48:26.007Z,4.63
2022-09-03T21:51:00.826Z,4.45
2022-09-03T21:53:38.028Z,4.22
2022-09-03T21:56:40.085Z,5.22
2022-09-03T21:59:28.986Z,3.80
2022-09-03T22:04:46.296Z,3.95
2022-09-03T22:07:25.675Z,4.55
2022-09-03T22:10:04.376Z,4.53
2022-09-03T22:12:48.226Z,4.25
2022-09-03T22:15:15.282Z,4.38
2022-09-03T22:17:54.735Z,4.05
2022-09-03T22:20:23.506Z,4.20
2022-09-03T22:23:02.380Z,4.57
2022-09-03T22:26:24.563Z,4.38
2022-09-03T22:29:35.098Z,4.47
2022-09-03T22:32:07.995Z,4.40
2022-09-03T22:38:20.168Z,4.60
2022-09-03T22:40:59.290Z,4.38
2022-09-03T22:44:13.839Z,4.45
2022-09-03T22:53:31.805Z,4.60
2022-09-03T22:56:18.416Z,4.30
2022-09-03T22:59:10.637Z,6.03
2022-09-03T23:01:45.242Z,4.47
2022-09-03T23:04:59.174Z,4.10
2022-09-03T23:07:52.732Z,4.60
2022-09-03T23:10:33.029Z,4.47
2022-09-03T23:13:06.575Z,4.57
2022-09-03T23:15:38.617Z,4.32
2022-09-03T23:18:16.058Z,5.60
2022-09-03T23:20:47.479Z,4.78
2022-09-03T23:23:22.543Z,4.22
2022-09-03T23:26:13.599Z,4.45
2022-09-03T23:29:20.838Z,4.95
2022-09-03T23:31:47.677Z,5.03
2022-09-03T23:34:18.767Z,4.32
2022-09-03T23:37:22.558Z,7.95
2022-09-03T23:40:09.480Z,4.88
2022-09-03T23:43:00.571Z,5.25
2022-09-03T23:45:27.869Z,5.50
2022-09-03T23:48:22.986Z,4.85
2022-09-03T23:51:10.320Z,6.00
2022-09-03T23:53:40.079Z,6.80
2022-09-03T23:56:13.014Z,5.43
2022-09-03T23:58:59.646Z,7.03
